createdAt,value
2018-11-04T00:01:12.885Z,8.37
2018-11-04T00:03:42.422Z,8.39
2018-11-04T00:06:10.940Z,8.44
2018-11-04T00:08:39.655Z,7.85
2018-11-04T00:11:08.180Z,8.51
2018-11-04T00:13:37.506Z,8.56
2018-11-04T00:16:05.975Z,8.55
2018-11-04T00:18:34.688Z,8.60
2018-11-04T00:21:04.051Z,8.63
2018-11-04T00:23:32.559Z,8.66
2018-11-04T00:26:01.031Z,8.63
2018-11-04T00:28:29.696Z,8.61
2018-11-04T00:30:58.627Z,8.57
2018-11-04T00:33:27.915Z,8.55
2018-11-04T00:35:56.794Z,8.07
2018-11-04T00:38:25.391Z,8.44
2018-11-04T00:40:56.193Z,8.39
2018-11-04T00:43:25.393Z,8.35
2018-11-04T00:45:54.167Z,8.32
2018-11-04T00:48:22.796Z,8.31
2018-11-04T00:50:51.508Z,8.27
2018-11-04T00:53:20.143Z,8.24
2018-11-04T00:55:55.703Z,8.23
2018-11-04T00:58:25.546Z,8.23
2018-11-04T01:00:54.319Z,8.03
2018-11-04T01:03:22.911Z,8.17
2018-11-04T01:05:51.654Z,7.88
2018-11-04T01:08:20.155Z,8.16
2018-11-04T01:10:48.990Z,7.79
2018-11-04T01:13:17.470Z,8.18
2018-11-04T01:15:46.094Z,8.22
2018-11-04T01:18:14.766Z,8.25
2018-11-04T01:20:43.393Z,8.24
2018-11-04T01:23:12.155Z,8.19
2018-11-04T01:25:40.734Z,8.11
2018-11-04T01:28:09.885Z,8.21
2018-11-04T01:30:38.401Z,8.17
2018-11-04T01:33:07.251Z,8.14
2018-11-04T01:35:35.766Z,8.16
2018-11-04T01:38:04.500Z,8.18
2018-11-04T01:40:33.075Z,8.11
2018-11-04T01:43:01.535Z,8.23
2018-11-04T01:45:30.304Z,8.24
2018-11-04T01:47:58.868Z,8.24
2018-11-04T01:50:27.627Z,8.24
2018-11-04T01:52:56.071Z,8.22
2018-11-04T01:55:24.687Z,8.21
2018-11-04T01:57:53.155Z,8.18
2018-11-04T02:00:21.653Z,8.15
2018-11-04T02:02:50.355Z,8.12
2018-11-04T02:05:18.798Z,8.08
2018-11-04T02:07:47.441Z,7.73
2018-11-04T02:10:16.203Z,7.99
2018-11-04T02:12:44.879Z,7.98
2018-11-04T02:15:13.983Z,7.98
2018-11-04T02:17:42.543Z,7.95
2018-11-04T02:20:12.347Z,7.94
2018-11-04T02:22:41.345Z,7.93
2018-11-04T02:25:11.370Z,7.89
2018-11-04T02:27:40.249Z,7.86
2018-11-04T02:30:11.326Z,7.38
2018-11-04T02:32:40.155Z,7.76
2018-11-04T02:35:08.867Z,7.70
2018-11-04T02:37:37.506Z,7.63
2018-11-04T02:40:06.507Z,7.27
2018-11-04T02:42:36.043Z,7.55
2018-11-04T02:45:04.897Z,7.50
2018-11-04T02:47:33.369Z,7.48
2018-11-04T02:50:02.011Z,7.47
2018-11-04T02:52:30.502Z,7.47
2018-11-04T02:54:59.137Z,7.46
2018-11-04T02:57:28.067Z,7.47
2018-11-04T02:59:56.601Z,7.47
2018-11-04T03:02:25.388Z,7.51
2018-11-04T03:04:53.851Z,7.51
2018-11-04T03:07:22.576Z,7.52
2018-11-04T03:09:51.039Z,7.50
2018-11-04T03:12:19.543Z,7.47
2018-11-04T03:14:48.093Z,7.42
2018-11-04T03:17:16.582Z,7.40
2018-11-04T03:19:45.402Z,7.38
2018-11-04T03:22:13.962Z,7.36
2018-11-04T03:24:42.813Z,7.35
2018-11-04T03:27:11.208Z,7.33
2018-11-04T03:29:39.719Z,7.30
2018-11-04T03:32:08.351Z,7.29
2018-11-04T03:34:36.878Z,7.28
2018-11-04T03:37:06.071Z,7.24
2018-11-04T03:39:34.569Z,7.23
2018-11-04T03:42:03.221Z,7.20
2018-11-04T03:44:31.750Z,7.17
2018-11-04T03:47:00.570Z,7.13
2018-11-04T03:49:29.081Z,7.09
2018-11-04T03:51:57.683Z,7.09
2018-11-04T03:54:26.304Z,7.00
2018-11-04T03:56:54.763Z,7.03
2018-11-04T03:59:23.577Z,7.00
2018-11-04T04:01:52.102Z,6.99
2018-11-04T04:04:20.922Z,6.96
2018-11-04T04:06:49.472Z,6.93
2018-11-04T04:09:18.067Z,6.92
2018-11-04T04:11:46.728Z,6.90
2018-11-04T04:14:15.251Z,6.88
2018-11-04T04:16:44.015Z,6.53
2018-11-04T04:19:12.579Z,6.84
2018-11-04T04:21:41.414Z,6.82
2018-11-04T04:24:09.867Z,6.79
2018-11-04T04:26:38.473Z,6.80
2018-11-04T04:29:07.116Z,6.79
2018-11-04T04:31:35.651Z,6.77
2018-11-04T04:34:04.486Z,6.75
2018-11-04T04:36:32.930Z,6.73
2018-11-04T04:39:01.657Z,6.74
2018-11-04T04:41:30.132Z,6.75
2018-11-04T04:43:58.652Z,6.78
2018-11-04T04:46:27.215Z,6.80
2018-11-04T04:48:55.671Z,6.76
2018-11-04T04:51:24.479Z,6.75
2018-11-04T04:53:53.046Z,6.72
2018-11-04T04:56:21.747Z,6.71
2018-11-04T04:58:51.030Z,6.70
2018-11-04T05:01:19.719Z,6.69
2018-11-04T05:03:48.198Z,6.68
2018-11-04T05:06:16.815Z,6.69
2018-11-04T05:08:45.467Z,6.68
2018-11-04T05:11:13.983Z,6.64
2018-11-04T05:13:42.584Z,6.60
2018-11-04T05:16:11.104Z,6.56
2018-11-04T05:18:39.764Z,6.55
2018-11-04T05:21:08.279Z,6.54
2018-11-04T05:23:39.691Z,6.48
2018-11-04T05:26:17.650Z,6.44
2018-11-04T05:28:48.100Z,6.35
2018-11-04T05:31:17.664Z,6.30
2018-11-04T05:33:46.391Z,6.25
2018-11-04T05:36:15.033Z,6.21
2018-11-04T05:38:43.472Z,6.17
2018-11-04T05:41:12.747Z,6.14
2018-11-04T05:43:41.267Z,6.09
2018-11-04T05:46:10.127Z,6.01
2018-11-04T05:48:38.656Z,6.00
2018-11-04T05:51:07.303Z,5.97
2018-11-04T05:53:39.203Z,5.93
2018-11-04T05:56:09.424Z,5.90
2018-11-04T05:58:38.076Z,5.87
2018-11-04T06:01:07.395Z,5.85
2018-11-04T06:03:36.042Z,5.77
2018-11-04T06:06:04.763Z,5.80
2018-11-04T06:08:35.519Z,5.79
2018-11-04T06:11:05.526Z,5.78
2018-11-04T06:13:33.974Z,5.76
2018-11-04T06:16:02.542Z,5.75
2018-11-04T06:18:31.003Z,5.74
2018-11-04T06:20:59.571Z,5.74
2018-11-04T06:23:28.330Z,5.74
2018-11-04T06:25:56.932Z,5.75
2018-11-04T06:28:25.740Z,5.77
2018-11-04T06:30:54.197Z,5.78
2018-11-04T06:33:22.752Z,5.78
2018-11-04T06:35:51.260Z,5.77
2018-11-04T06:38:19.723Z,5.79
2018-11-04T06:40:48.490Z,5.79
2018-11-04T06:43:17.009Z,5.80
2018-11-04T06:45:45.610Z,5.79
2018-11-04T06:48:14.125Z,5.85
2018-11-04T06:50:42.631Z,5.90
2018-11-04T06:53:11.119Z,5.94
2018-11-04T06:55:39.718Z,5.98
2018-11-04T06:58:08.447Z,6.03
2018-11-04T07:00:36.929Z,6.09
2018-11-04T07:03:05.660Z,6.11
2018-11-04T07:05:34.139Z,6.12
2018-11-04T07:08:02.788Z,6.13
2018-11-04T07:10:31.244Z,6.14
2018-11-04T07:12:59.823Z,6.15
2018-11-04T07:15:29.098Z,5.45
2018-11-04T07:17:57.643Z,6.22
2018-11-04T07:20:26.462Z,6.26
2018-11-04T07:22:55.190Z,6.25
2018-11-04T07:25:23.828Z,6.24
2018-11-04T07:27:52.324Z,6.24
2018-11-04T07:30:20.828Z,6.25
2018-11-04T07:32:49.450Z,6.27
2018-11-04T07:35:17.964Z,6.24
2018-11-04T07:37:46.644Z,6.24
2018-11-04T07:40:15.151Z,6.23
2018-11-04T07:42:43.704Z,6.22
2018-11-04T07:45:12.201Z,6.25
2018-11-04T07:47:41.200Z,6.28
2018-11-04T07:50:12.672Z,6.28
2018-11-04T07:52:41.572Z,6.27
2018-11-04T07:55:10.620Z,6.28
2018-11-04T07:57:41.139Z,6.28
2018-11-04T08:00:12.823Z,6.32
2018-11-04T08:02:41.611Z,6.35
2018-11-04T08:05:11.250Z,6.30
2018-11-04T08:07:41.287Z,6.38
2018-11-04T08:10:12.417Z,6.42
2018-11-04T08:12:41.183Z,6.16
2018-11-04T08:15:10.537Z,6.45
2018-11-04T08:17:39.783Z,6.44
2018-11-04T08:20:09.170Z,6.47
2018-11-04T08:22:37.800Z,6.21
2018-11-04T08:25:06.794Z,6.54
2018-11-04T08:27:35.656Z,6.54
2018-11-04T08:30:04.467Z,6.57
2018-11-04T08:32:33.111Z,6.57
2018-11-04T08:35:01.583Z,6.63
2018-11-04T08:37:30.131Z,6.61
2018-11-04T08:39:59.163Z,6.00
2018-11-04T08:42:27.539Z,6.63
2018-11-04T08:44:56.339Z,6.62
2018-11-04T08:47:24.806Z,6.61
2018-11-04T08:49:53.553Z,6.58
2018-11-04T08:52:22.165Z,6.59
2018-11-04T08:54:50.641Z,6.63
2018-11-04T08:57:19.123Z,6.17
2018-11-04T08:59:47.669Z,6.72
2018-11-04T09:02:16.510Z,6.78
2018-11-04T09:04:44.978Z,6.82
2018-11-04T09:07:13.629Z,6.85
2018-11-04T09:09:42.319Z,6.93
2018-11-04T09:12:10.883Z,6.96
2018-11-04T09:14:39.451Z,7.00
2018-11-04T09:17:08.524Z,7.01
2018-11-04T09:19:37.288Z,6.38
2018-11-04T09:22:06.598Z,7.08
2018-11-04T09:24:35.040Z,6.76
2018-11-04T09:27:03.753Z,7.09
2018-11-04T09:29:32.452Z,7.13
2018-11-04T09:32:01.062Z,7.18
2018-11-04T09:34:29.667Z,7.27
2018-11-04T09:36:58.319Z,7.29
2018-11-04T09:39:26.987Z,7.37
2018-11-04T09:41:55.719Z,7.43
2018-11-04T09:44:24.300Z,7.46
2018-11-04T09:46:53.126Z,7.48
2018-11-04T09:49:21.655Z,7.51
2018-11-04T09:51:50.270Z,7.52
2018-11-04T09:54:18.881Z,7.56
2018-11-04T09:56:47.464Z,7.58
2018-11-04T09:59:16.355Z,6.84
2018-11-04T10:01:45.045Z,7.63
2018-11-04T10:04:13.850Z,7.64
2018-11-04T10:06:42.409Z,7.30
2018-11-04T10:09:11.719Z,7.73
2018-11-04T10:11:40.602Z,7.75
2018-11-04T10:14:09.170Z,7.83
2018-11-04T10:16:38.107Z,7.85
2018-11-04T10:19:06.796Z,7.86
2018-11-04T10:21:35.471Z,7.57
2018-11-04T10:24:03.991Z,7.96
2018-11-04T10:26:32.871Z,7.95
2018-11-04T10:29:01.470Z,7.93
2018-11-04T10:31:30.191Z,7.94
2018-11-04T10:33:58.768Z,7.94
2018-11-04T10:36:27.267Z,7.96
2018-11-04T10:38:56.044Z,8.04
2018-11-04T10:41:24.646Z,8.19
2018-11-04T10:43:53.461Z,7.88
2018-11-04T10:46:22.035Z,8.34
2018-11-04T10:48:50.648Z,8.42
2018-11-04T10:51:19.282Z,8.42
2018-11-04T10:53:47.872Z,8.44
2018-11-04T10:56:16.451Z,8.39
2018-11-04T10:58:45.052Z,8.44
2018-11-04T11:01:13.719Z,8.45
2018-11-04T11:03:42.214Z,8.45
2018-11-04T11:06:10.916Z,8.51
2018-11-04T11:08:39.395Z,8.57
2018-11-04T11:11:08.051Z,8.62
2018-11-04T11:13:36.657Z,8.72
2018-11-04T11:16:05.352Z,8.80
2018-11-04T11:18:33.958Z,8.72
2018-11-04T11:21:02.559Z,8.85
2018-11-04T11:23:31.358Z,8.95
2018-11-04T11:25:59.954Z,9.02
2018-11-04T11:28:28.690Z,9.10
2018-11-04T11:30:57.287Z,9.09
2018-11-04T11:33:25.806Z,9.05
2018-11-04T11:35:54.307Z,8.49
2018-11-04T11:38:22.802Z,9.10
2018-11-04T11:40:51.758Z,9.13
2018-11-04T11:43:20.267Z,9.18
2018-11-04T11:45:49.029Z,9.14
2018-11-04T11:48:17.871Z,9.21
2018-11-04T11:50:46.403Z,9.18
2018-11-04T11:53:15.011Z,9.19
2018-11-04T11:55:43.518Z,9.19
2018-11-04T11:58:12.323Z,9.20
2018-11-04T12:00:40.805Z,9.22
2018-11-04T12:03:09.451Z,9.25
2018-11-04T12:05:37.971Z,9.19
2018-11-04T12:08:06.628Z,9.14
2018-11-04T12:10:35.178Z,9.03
2018-11-04T12:13:03.816Z,9.01
2018-11-04T12:15:32.599Z,8.98
2018-11-04T12:18:01.148Z,8.98
2018-11-04T12:20:29.919Z,9.03
2018-11-04T12:22:58.376Z,9.05
2018-11-04T12:25:27.105Z,9.06
2018-11-04T12:27:55.645Z,9.02
2018-11-04T12:30:24.356Z,9.01
2018-11-04T12:32:52.955Z,9.06
2018-11-04T12:35:21.603Z,9.05
2018-11-04T12:37:50.470Z,9.06
2018-11-04T12:40:18.991Z,9.07
2018-11-04T12:42:47.747Z,9.10
2018-11-04T12:45:16.230Z,9.08
2018-11-04T12:47:44.828Z,9.13
2018-11-04T12:50:13.674Z,9.15
2018-11-04T12:52:42.321Z,9.16
2018-11-04T12:55:11.061Z,9.12
2018-11-04T12:57:39.644Z,9.14
2018-11-04T13:00:11.038Z,9.10
2018-11-04T13:02:39.534Z,9.07
2018-11-04T13:05:09.562Z,9.11
2018-11-04T13:07:38.042Z,9.08
2018-11-04T13:10:09.008Z,9.06
2018-11-04T13:12:37.874Z,9.08
2018-11-04T13:15:07.175Z,9.09
2018-11-04T13:17:35.783Z,9.04
2018-11-04T13:20:04.732Z,9.06
2018-11-04T13:22:33.295Z,9.17
2018-11-04T13:25:02.251Z,9.27
2018-11-04T13:27:30.776Z,9.34
2018-11-04T13:29:59.359Z,9.30
2018-11-04T13:32:28.407Z,9.27
2018-11-04T13:34:57.004Z,9.26
2018-11-04T13:37:25.754Z,9.18
2018-11-04T13:39:54.241Z,9.16
2018-11-04T13:42:23.151Z,9.01
2018-11-04T13:44:51.650Z,9.01
2018-11-04T13:47:20.369Z,8.97
2018-11-04T13:49:48.922Z,8.90
2018-11-04T13:52:18.299Z,8.86
2018-11-04T13:54:47.380Z,8.83
2018-11-04T13:57:16.192Z,8.78
2018-11-04T13:59:44.869Z,8.80
2018-11-04T14:02:13.367Z,8.81
2018-11-04T14:04:42.002Z,8.69
2018-11-04T14:07:10.746Z,8.63
2018-11-04T14:09:39.544Z,8.57
2018-11-04T14:12:08.178Z,8.55
2018-11-04T14:14:36.699Z,8.50
2018-11-04T14:17:05.510Z,8.10
2018-11-04T14:19:34.069Z,8.34
2018-11-04T14:22:02.867Z,7.91
2018-11-04T14:24:31.428Z,8.27
2018-11-04T14:27:00.166Z,8.20
2018-11-04T14:29:28.623Z,8.15
2018-11-04T14:31:57.204Z,8.12
2018-11-04T14:34:25.833Z,8.08
2018-11-04T14:36:54.308Z,8.10
2018-11-04T14:39:23.114Z,8.08
2018-11-04T14:41:51.606Z,8.01
2018-11-04T14:44:20.489Z,7.99
2018-11-04T14:49:24.000Z,7.87
2018-11-04T14:51:52.521Z,7.80
2018-11-04T14:54:21.267Z,7.81
2018-11-04T14:56:49.813Z,7.80
2018-11-04T14:59:18.818Z,7.82
2018-11-04T15:01:47.581Z,7.81
2018-11-04T15:04:16.320Z,7.80
2018-11-04T15:06:44.897Z,7.82
2018-11-04T15:09:13.527Z,7.79
2018-11-04T15:11:42.103Z,7.75
2018-11-04T15:14:10.707Z,7.74
2018-11-04T15:16:39.679Z,7.73
2018-11-04T15:19:08.215Z,7.71
2018-11-04T15:21:36.958Z,7.36
2018-11-04T15:24:05.694Z,7.65
2018-11-04T15:26:34.303Z,7.59
2018-11-04T15:29:02.796Z,7.56
2018-11-04T15:31:31.308Z,7.54
2018-11-04T15:34:00.149Z,7.11
2018-11-04T15:36:28.623Z,7.51
2018-11-04T15:38:57.733Z,7.43
2018-11-04T15:41:26.171Z,7.45
2018-11-04T15:43:55.093Z,7.46
2018-11-04T15:46:23.571Z,7.45
2018-11-04T15:48:52.188Z,7.44
2018-11-04T15:51:20.827Z,7.46
2018-11-04T15:53:49.387Z,7.46
2018-11-04T15:56:18.494Z,7.46
2018-11-04T15:58:47.022Z,7.49
2018-11-04T16:01:15.958Z,7.51
2018-11-04T16:03:44.439Z,7.52
2018-11-04T16:06:13.126Z,7.53
2018-11-04T16:08:41.826Z,7.55
2018-11-04T16:11:10.352Z,7.56
2018-11-04T16:13:39.225Z,7.54
2018-11-04T16:16:07.810Z,7.57
2018-11-04T16:18:36.727Z,7.60
2018-11-04T16:21:05.392Z,7.60
2018-11-04T16:23:34.211Z,7.61
2018-11-04T16:26:02.797Z,7.62
2018-11-04T16:28:31.380Z,7.64
2018-11-04T16:30:59.895Z,7.66
2018-11-04T16:33:28.574Z,7.67
2018-11-04T16:35:58.910Z,6.96
2018-11-04T16:38:27.482Z,7.71
2018-11-04T16:40:56.299Z,7.74
2018-11-04T16:43:24.947Z,7.77
2018-11-04T16:45:53.512Z,7.78
2018-11-04T16:48:22.037Z,7.78
2018-11-04T16:50:50.644Z,7.79
2018-11-04T16:53:19.185Z,7.82
2018-11-04T16:55:47.768Z,7.85
2018-11-04T16:58:16.694Z,7.87
2018-11-04T17:00:45.194Z,7.89
2018-11-04T17:03:13.904Z,7.89
2018-11-04T17:05:42.620Z,7.92
2018-11-04T17:08:11.035Z,7.92
2018-11-04T17:10:39.624Z,7.92
2018-11-04T17:13:08.095Z,7.93
2018-11-04T17:15:36.949Z,7.96
2018-11-04T17:18:05.819Z,7.98
2018-11-04T17:20:34.479Z,7.99
2018-11-04T17:23:02.979Z,8.01
2018-11-04T17:25:31.755Z,8.02
2018-11-04T17:28:01.127Z,8.01
2018-11-04T17:30:29.787Z,8.03
2018-11-04T17:32:58.352Z,8.05
2018-11-04T17:35:26.976Z,8.05
2018-11-04T17:37:55.703Z,7.66
2018-11-04T17:40:24.257Z,8.06
2018-11-04T17:42:52.963Z,7.77
2018-11-04T17:45:21.476Z,8.11
2018-11-04T17:47:50.182Z,8.10
2018-11-04T17:50:19.709Z,8.10
2018-11-04T17:52:48.390Z,8.11
2018-11-04T17:55:17.225Z,7.80
2018-11-04T17:57:45.963Z,8.12
2018-11-04T18:00:16.099Z,8.13
2018-11-04T18:02:44.779Z,8.14
2018-11-04T18:05:14.030Z,8.17
2018-11-04T18:07:43.200Z,8.20
2018-11-04T18:10:13.035Z,8.20
2018-11-04T18:12:41.675Z,8.22
2018-11-04T18:15:11.738Z,8.24
2018-11-04T18:17:40.323Z,8.26
2018-11-04T18:20:10.183Z,8.28
2018-11-04T18:22:39.139Z,8.28
2018-11-04T18:27:46.939Z,8.33
2018-11-04T18:30:18.573Z,8.34
2018-11-04T18:32:47.894Z,8.35
2018-11-04T18:35:20.632Z,8.37
2018-11-04T18:37:49.312Z,8.38
2018-11-04T18:40:20.692Z,8.37
2018-11-04T18:42:49.643Z,8.38
2018-11-04T18:45:25.200Z,8.38
2018-11-04T18:48:01.017Z,8.37
2018-11-04T18:50:37.554Z,8.35
2018-11-04T18:53:09.919Z,8.00
2018-11-04T18:55:44.563Z,8.32
2018-11-04T18:58:18.315Z,8.34
2018-11-04T19:00:46.902Z,8.34
2018-11-04T19:03:15.475Z,8.33
2018-11-04T19:05:48.175Z,8.31
2018-11-04T19:08:17.104Z,8.31
2018-11-04T19:10:45.891Z,8.29
2018-11-04T19:13:15.198Z,8.31
2018-11-04T19:15:45.834Z,8.29
2018-11-04T19:18:15.929Z,8.30
2018-11-04T19:20:44.524Z,8.27
2018-11-04T19:23:13.347Z,8.27
2018-11-04T19:25:41.999Z,8.24
2018-11-04T19:28:10.976Z,8.26
2018-11-04T19:30:39.611Z,8.26
2018-11-04T19:33:08.956Z,8.26
2018-11-04T19:35:37.543Z,8.23
2018-11-04T19:38:06.683Z,8.24
2018-11-04T19:40:35.440Z,8.23
2018-11-04T19:43:04.189Z,8.23
2018-11-04T19:45:32.774Z,8.21
2018-11-04T19:48:01.381Z,8.22
2018-11-04T19:50:30.319Z,7.81
2018-11-04T19:52:58.968Z,8.17
2018-11-04T19:55:28.285Z,8.15
2018-11-04T19:57:58.063Z,8.14
2018-11-04T20:00:26.780Z,8.12
2018-11-04T20:02:55.351Z,8.11
2018-11-04T20:05:24.033Z,8.09
2018-11-04T20:07:52.605Z,8.10
2018-11-04T20:10:21.387Z,8.11
2018-11-04T20:12:55.464Z,7.32
2018-11-04T20:15:24.543Z,7.69
2018-11-04T20:17:53.062Z,8.04
2018-11-04T20:20:25.179Z,8.03
2018-11-04T20:22:53.987Z,7.99
2018-11-04T20:25:27.962Z,7.98
2018-11-04T20:27:56.622Z,7.96
2018-11-04T20:30:25.239Z,7.95
2018-11-04T20:32:59.152Z,7.93
2018-11-04T20:35:27.650Z,7.95
2018-11-04T20:37:56.536Z,7.93
2018-11-04T20:40:30.472Z,7.91
2018-11-04T20:42:59.342Z,7.90
2018-11-04T20:45:27.906Z,7.88
2018-11-04T20:48:01.892Z,7.83
2018-11-04T20:50:35.787Z,7.92
2018-11-04T20:53:04.680Z,7.93
2018-11-04T20:55:38.645Z,7.96
2018-11-04T20:58:07.489Z,7.98
2018-11-04T21:00:35.943Z,8.01
2018-11-04T21:03:04.743Z,8.04
2018-11-04T21:05:33.318Z,8.05
2018-11-04T21:08:02.110Z,8.03
2018-11-04T21:10:30.595Z,8.03
2018-11-04T21:12:59.111Z,8.03
2018-11-04T21:15:27.707Z,8.02
2018-11-04T21:17:56.199Z,8.00
2018-11-04T21:20:24.981Z,7.22
2018-11-04T21:22:53.513Z,7.94
2018-11-04T21:25:22.313Z,7.93
2018-11-04T21:27:50.874Z,7.93
2018-11-04T21:30:19.449Z,7.94
2018-11-04T21:32:48.158Z,7.95
2018-11-04T21:35:16.671Z,7.99
2018-11-04T21:37:45.315Z,7.83
2018-11-04T21:40:13.752Z,8.06
2018-11-04T21:42:42.873Z,8.13
2018-11-04T21:45:12.751Z,8.16
2018-11-04T21:47:41.659Z,8.18
2018-11-04T21:50:11.002Z,8.20
2018-11-04T21:52:39.898Z,8.23
2018-11-04T21:55:10.355Z,8.25
2018-11-04T21:57:39.472Z,8.27
2018-11-04T22:00:10.210Z,8.26
2018-11-04T22:02:39.223Z,8.32
2018-11-04T22:05:08.280Z,8.34
2018-11-04T22:07:37.114Z,8.01
2018-11-04T22:10:07.908Z,8.36
2018-11-04T22:12:36.691Z,8.39
2018-11-04T22:15:05.243Z,8.39
2018-11-04T22:17:33.989Z,8.41
2018-11-04T22:20:02.544Z,8.39
2018-11-04T22:22:31.063Z,8.43
2018-11-04T22:24:59.652Z,8.44
2018-11-04T22:27:28.162Z,8.45
2018-11-04T22:29:56.899Z,8.47
2018-11-04T22:32:25.491Z,8.46
2018-11-04T22:34:54.231Z,8.46
2018-11-04T22:37:22.883Z,8.48
2018-11-04T22:39:51.526Z,8.49
2018-11-04T22:42:20.112Z,8.50
2018-11-04T22:44:48.607Z,8.48
2018-11-04T22:47:17.304Z,8.51
2018-11-04T22:49:45.787Z,8.52
2018-11-04T22:52:14.731Z,8.52
2018-11-04T22:54:43.270Z,8.52
2018-11-04T22:57:11.787Z,8.52
2018-11-04T22:59:40.259Z,8.48
2018-11-04T23:02:08.898Z,8.56
2018-11-04T23:04:42.711Z,8.57
2018-11-04T23:07:11.480Z,8.57
2018-11-04T23:09:40.032Z,8.57
2018-11-04T23:12:08.618Z,8.59
2018-11-04T23:14:37.156Z,8.59
2018-11-04T23:17:05.655Z,8.55
2018-11-04T23:19:34.629Z,8.60
2018-11-04T23:22:03.212Z,8.59
2018-11-04T23:24:31.982Z,8.61
2018-11-04T23:27:00.557Z,8.62
2018-11-04T23:29:29.180Z,8.63
2018-11-04T23:31:57.743Z,8.63
2018-11-04T23:34:26.275Z,8.62
2018-11-04T23:36:55.103Z,8.60
2018-11-04T23:39:23.639Z,8.64
2018-11-04T23:41:52.619Z,8.65
2018-11-04T23:44:21.135Z,8.65
2018-11-04T23:46:49.681Z,8.66
2018-11-04T23:49:18.174Z,8.65
2018-11-04T23:51:46.850Z,8.64
2018-11-04T23:54:15.444Z,8.67
2018-11-04T23:56:43.986Z,8.67
2018-11-04T23:59:12.678Z,8.67
